createdAt,value
2018-06-13T00:01:10.379Z,18.51
2018-06-13T00:03:39.060Z,18.59
2018-06-13T00:06:08.493Z,18.66
2018-06-13T00:08:37.903Z,18.69
2018-06-13T00:11:06.587Z,18.74
2018-06-13T00:13:35.485Z,18.77
2018-06-13T00:16:04.125Z,18.76
2018-06-13T00:18:32.783Z,18.77
2018-06-13T00:21:01.460Z,18.73
2018-06-13T00:23:30.174Z,18.72
2018-06-13T00:25:58.773Z,18.65
2018-06-13T00:28:27.527Z,18.57
2018-06-13T00:30:56.183Z,18.62
2018-06-13T00:33:24.813Z,18.56
2018-06-13T00:35:53.444Z,18.49
2018-06-13T00:38:22.909Z,18.43
2018-06-13T00:40:51.537Z,18.40
2018-06-13T00:43:20.161Z,18.47
2018-06-13T00:45:48.806Z,18.49
2018-06-13T00:48:17.442Z,18.61
2018-06-13T00:50:46.072Z,18.61
2018-06-13T00:53:16.464Z,18.63
2018-06-13T00:55:55.940Z,18.54
2018-06-13T00:58:24.549Z,18.51
2018-06-13T01:00:53.174Z,18.61
2018-06-13T01:03:21.826Z,18.52
2018-06-13T01:05:50.753Z,18.46
2018-06-13T01:08:19.979Z,18.40
2018-06-13T01:10:48.950Z,18.39
2018-06-13T01:13:19.236Z,18.26
2018-06-13T01:15:47.873Z,18.14
2018-06-13T01:18:16.587Z,18.10
2018-06-13T01:20:45.268Z,18.07
2018-06-13T01:23:13.965Z,18.08
2018-06-13T01:25:42.646Z,18.08
2018-06-13T01:28:11.249Z,18.00
2018-06-13T01:30:39.851Z,17.99
2018-06-13T01:33:08.503Z,18.00
2018-06-13T01:35:37.146Z,17.98
2018-06-13T01:38:05.983Z,17.96
2018-06-13T01:40:35.944Z,17.89
2018-06-13T01:43:04.943Z,17.83
2018-06-13T01:45:33.806Z,17.84
2018-06-13T01:48:02.438Z,17.80
2018-06-13T01:50:31.104Z,17.76
2018-06-13T01:52:59.737Z,17.73
2018-06-13T01:55:28.351Z,17.68
2018-06-13T01:57:56.990Z,17.66
2018-06-13T02:00:25.647Z,17.63
2018-06-13T02:02:54.241Z,17.59
2018-06-13T02:05:22.878Z,17.54
2018-06-13T02:07:52.966Z,17.52
2018-06-13T02:10:22.293Z,17.47
2018-06-13T02:12:50.982Z,17.45
2018-06-13T02:15:19.689Z,17.39
2018-06-13T02:17:48.359Z,17.35
2018-06-13T02:20:16.985Z,17.33
2018-06-13T02:22:46.370Z,17.34
2018-06-13T02:25:18.026Z,17.51
2018-06-13T02:27:46.860Z,17.57
2018-06-13T02:30:15.732Z,17.63
2018-06-13T02:32:44.691Z,17.65
2018-06-13T02:35:13.504Z,17.71
2018-06-13T02:37:42.083Z,17.78
2018-06-13T02:40:10.754Z,17.86
2018-06-13T02:42:39.373Z,17.93
2018-06-13T02:45:08.023Z,17.98
2018-06-13T02:47:36.658Z,18.00
2018-06-13T02:50:05.380Z,18.04
2018-06-13T02:52:34.038Z,18.10
2018-06-13T02:55:02.655Z,18.24
2018-06-13T02:57:31.298Z,18.29
2018-06-13T02:59:59.938Z,18.47
2018-06-13T03:02:28.602Z,18.55
2018-06-13T03:04:57.249Z,18.57
2018-06-13T03:07:25.851Z,18.61
2018-06-13T03:09:54.470Z,18.62
2018-06-13T03:12:23.149Z,18.69
2018-06-13T03:14:51.755Z,18.57
2018-06-13T03:17:20.358Z,18.61
2018-06-13T03:19:49.016Z,18.58
2018-06-13T03:22:17.622Z,18.54
2018-06-13T03:24:46.228Z,18.50
2018-06-13T03:27:14.894Z,18.59
2018-06-13T03:29:43.554Z,18.55
2018-06-13T03:32:12.169Z,18.61
2018-06-13T03:34:41.410Z,18.61
2018-06-13T03:37:09.975Z,18.62
2018-06-13T03:39:38.637Z,18.61
2018-06-13T03:42:07.293Z,18.66
2018-06-13T03:44:35.909Z,18.70
2018-06-13T03:47:04.522Z,18.76
2018-06-13T03:49:33.093Z,18.80
2018-06-13T03:52:01.697Z,18.94
2018-06-13T03:54:30.377Z,19.01
2018-06-13T03:56:59.007Z,19.12
2018-06-13T03:59:27.658Z,19.22
2018-06-13T04:01:56.344Z,19.43
2018-06-13T04:04:24.956Z,19.47
2018-06-13T04:06:53.754Z,19.41
2018-06-13T04:09:22.417Z,19.34
2018-06-13T04:11:51.070Z,19.30
2018-06-13T04:14:19.815Z,19.25
2018-06-13T04:16:49.081Z,19.17
2018-06-13T04:19:17.677Z,19.16
2018-06-13T04:21:46.834Z,19.09
2018-06-13T04:24:15.462Z,19.06
2018-06-13T04:26:44.123Z,19.08
2018-06-13T04:29:12.808Z,19.04
2018-06-13T04:31:42.961Z,18.99
2018-06-13T04:34:11.586Z,19.03
2018-06-13T04:36:40.250Z,19.06
2018-06-13T04:39:09.609Z,19.09
2018-06-13T04:41:38.238Z,19.10
2018-06-13T04:44:06.873Z,19.18
2018-06-13T04:46:35.519Z,19.25
2018-06-13T04:49:04.167Z,19.38
2018-06-13T04:51:32.775Z,19.60
2018-06-13T04:54:01.463Z,19.60
2018-06-13T04:56:30.161Z,19.48
2018-06-13T04:58:58.830Z,19.67
2018-06-13T05:01:27.451Z,19.70
2018-06-13T05:03:56.047Z,19.83
2018-06-13T05:06:24.703Z,19.82
2018-06-13T05:08:53.390Z,19.92
2018-06-13T05:11:22.065Z,20.02
2018-06-13T05:13:50.762Z,19.94
2018-06-13T05:16:19.395Z,19.92
2018-06-13T05:18:48.024Z,19.90
2018-06-13T05:21:16.626Z,19.99
2018-06-13T05:23:45.261Z,20.22
2018-06-13T05:26:13.899Z,20.44
2018-06-13T05:28:42.514Z,20.46
2018-06-13T05:31:11.155Z,20.51
2018-06-13T05:33:39.742Z,20.64
2018-06-13T05:36:08.423Z,20.61
2018-06-13T05:38:37.062Z,20.69
2018-06-13T05:41:05.686Z,20.80
2018-06-13T05:43:34.298Z,20.91
2018-06-13T05:46:02.960Z,20.87
2018-06-13T05:48:31.997Z,20.97
2018-06-13T05:51:08.957Z,21.15
2018-06-13T05:53:45.481Z,21.16
2018-06-13T05:56:25.531Z,21.17
2018-06-13T05:58:56.033Z,21.30
2018-06-13T06:01:26.426Z,21.54
2018-06-13T06:03:58.014Z,21.66
2018-06-13T06:06:26.675Z,21.69
2018-06-13T06:08:55.493Z,21.87
2018-06-13T06:11:24.169Z,21.78
2018-06-13T06:13:52.830Z,21.99
2018-06-13T06:16:21.491Z,22.15
2018-06-13T06:18:50.305Z,22.44
2018-06-13T06:21:19.041Z,22.16
2018-06-13T06:23:47.678Z,22.32
2018-06-13T06:26:16.265Z,22.33
2018-06-13T06:28:44.942Z,22.17
2018-06-13T06:31:13.702Z,22.48
2018-06-13T06:33:42.327Z,22.33
2018-06-13T06:36:11.698Z,22.18
2018-06-13T06:38:49.595Z,22.25
2018-06-13T06:41:30.622Z,22.05
2018-06-13T06:43:59.745Z,22.26
2018-06-13T06:46:30.915Z,22.20
2018-06-13T06:49:03.643Z,22.10
2018-06-13T08:13:36.728Z,24.68
2018-06-13T08:16:05.803Z,25.06
2018-06-13T08:18:34.612Z,25.32
2018-06-13T08:21:03.306Z,25.32
2018-06-13T08:23:32.001Z,25.22
2018-06-13T08:26:00.700Z,25.03
2018-06-13T08:28:29.296Z,24.49
2018-06-13T08:30:58.115Z,24.54
2018-06-13T08:33:27.136Z,24.24
2018-06-13T08:35:55.840Z,24.34
2018-06-13T08:38:24.951Z,24.49
2018-06-13T08:40:56.645Z,25.19
2018-06-13T08:43:25.401Z,25.34
2018-06-13T08:45:54.054Z,26.09
2018-06-13T08:48:22.685Z,26.48
2018-06-13T08:50:51.980Z,26.51
2018-06-13T08:53:20.664Z,26.29
2018-06-13T08:55:49.323Z,25.99
2018-06-13T08:58:17.979Z,25.68
2018-06-13T09:00:46.616Z,25.40
2018-06-13T09:03:15.225Z,25.15
2018-06-13T09:05:43.901Z,24.64
2018-06-13T09:08:12.527Z,24.69
2018-06-13T09:10:41.669Z,24.79
2018-06-13T09:13:10.315Z,24.64
2018-06-13T09:15:38.994Z,24.55
2018-06-13T09:18:07.653Z,24.42
2018-06-13T09:20:36.354Z,24.42
2018-06-13T09:23:05.064Z,24.27
2018-06-13T09:25:33.745Z,24.01
2018-06-13T09:28:02.398Z,23.89
2018-06-13T09:30:31.103Z,23.48
2018-06-13T09:32:59.714Z,23.31
2018-06-13T09:48:20.493Z,22.38
2018-06-13T09:50:49.094Z,22.36
2018-06-13T09:53:17.757Z,22.20
2018-06-13T09:55:46.397Z,22.09
2018-06-13T09:58:15.277Z,22.24
2018-06-13T10:00:48.908Z,22.41
2018-06-13T10:03:17.511Z,22.36
2018-06-13T10:05:46.111Z,22.40
2018-06-13T10:08:15.637Z,22.84
2018-06-13T10:10:44.230Z,23.29
2018-06-13T10:13:12.898Z,23.39
2018-06-13T10:15:41.585Z,23.81
2018-06-13T10:18:10.219Z,23.72
2018-06-13T10:20:38.920Z,24.10
2018-06-13T10:23:07.516Z,24.93
2018-06-13T10:25:36.135Z,25.48
2018-06-13T10:28:05.762Z,25.04
2018-06-13T10:30:34.366Z,24.83
2018-06-13T10:33:03.005Z,24.66
2018-06-13T10:35:31.707Z,24.51
2018-06-13T10:38:00.974Z,24.37
2018-06-13T10:40:29.580Z,24.23
2018-06-13T10:42:58.209Z,24.59
2018-06-13T10:45:26.818Z,24.84
2018-06-13T10:47:55.431Z,25.21
2018-06-13T10:50:24.046Z,24.93
2018-06-13T10:52:52.714Z,24.69
2018-06-13T10:55:21.920Z,24.80
2018-06-13T10:57:50.607Z,24.68
2018-06-13T11:00:19.345Z,25.00
2018-06-13T11:02:48.043Z,25.24
2018-06-13T11:05:16.795Z,25.26
2018-06-13T11:07:45.484Z,25.83
2018-06-13T11:10:14.160Z,26.07
2018-06-13T11:12:42.786Z,26.12
2018-06-13T11:15:11.437Z,25.89
2018-06-13T11:17:40.089Z,25.91
2018-06-13T11:20:08.808Z,26.55
2018-06-13T11:22:37.460Z,26.73
2018-06-13T11:25:06.070Z,26.20
2018-06-13T11:27:34.748Z,25.87
2018-06-13T11:30:04.089Z,26.06
2018-06-13T11:32:32.783Z,25.83
2018-06-13T11:35:05.605Z,25.43
2018-06-13T11:37:34.824Z,24.77
2018-06-13T11:40:03.562Z,24.94
2018-06-13T11:42:33.259Z,25.36
2018-06-13T11:45:01.936Z,25.56
2018-06-13T11:47:30.573Z,25.54
2018-06-13T11:49:59.317Z,25.40
2018-06-13T11:52:28.005Z,25.49
2018-06-13T11:54:56.709Z,25.11
2018-06-13T11:57:25.338Z,25.10
2018-06-13T11:59:53.978Z,25.18
2018-06-13T12:02:22.594Z,25.39
2018-06-13T12:04:51.359Z,25.20
2018-06-13T12:07:19.998Z,25.25
2018-06-13T12:09:48.654Z,25.40
2018-06-13T12:12:17.312Z,25.35
2018-06-13T12:14:45.990Z,25.47
2018-06-13T12:17:14.657Z,25.67
2018-06-13T12:19:43.298Z,25.76
2018-06-13T12:22:11.930Z,26.11
2018-06-13T12:24:40.552Z,26.22
2018-06-13T12:27:09.266Z,26.00
2018-06-13T12:29:37.858Z,25.95
2018-06-13T12:32:06.568Z,26.29
2018-06-13T12:34:35.252Z,26.82
2018-06-13T12:37:03.928Z,26.42
2018-06-13T12:39:32.653Z,25.93
2018-06-13T12:42:01.315Z,26.20
2018-06-13T12:44:29.996Z,25.96
2018-06-13T12:46:58.678Z,26.01
2018-06-13T12:49:27.922Z,26.14
2018-06-13T12:51:56.743Z,25.52
2018-06-13T12:54:25.544Z,25.33
2018-06-13T12:56:54.487Z,25.62
2018-06-13T12:59:23.393Z,25.65
2018-06-13T13:01:52.139Z,25.66
2018-06-13T13:04:20.839Z,25.52
2018-06-13T13:06:49.558Z,25.96
2018-06-13T13:09:18.286Z,25.93
2018-06-13T13:11:47.022Z,25.55
2018-06-13T13:14:15.785Z,25.55
2018-06-13T13:16:44.484Z,25.52
2018-06-13T13:19:13.205Z,26.33
2018-06-13T13:21:41.995Z,25.81
2018-06-13T13:24:10.807Z,25.78
2018-06-13T13:26:39.654Z,25.62
2018-06-13T13:29:08.423Z,25.15
2018-06-13T13:31:37.215Z,24.89
2018-06-13T13:34:05.979Z,24.80
2018-06-13T13:36:34.746Z,24.48
2018-06-13T13:39:05.092Z,24.35
2018-06-13T13:41:33.809Z,24.32
2018-06-13T13:44:02.599Z,24.56
2018-06-13T13:46:31.428Z,24.41
2018-06-13T13:49:00.203Z,24.15
2018-06-13T13:51:28.953Z,24.01
2018-06-13T13:53:57.683Z,24.12
2018-06-13T13:56:26.411Z,23.98
2018-06-13T13:58:55.318Z,23.90
2018-06-13T14:01:24.398Z,23.58
2018-06-13T14:03:53.092Z,23.58
2018-06-13T14:06:21.832Z,23.67
2018-06-13T14:08:50.762Z,23.70
2018-06-13T14:11:19.559Z,23.79
2018-06-13T14:13:51.337Z,23.79
2018-06-13T14:16:20.054Z,23.71
2018-06-13T14:18:48.870Z,23.14
2018-06-13T14:21:17.725Z,22.72
2018-06-13T14:23:46.422Z,22.36
2018-06-13T14:26:15.236Z,22.17
2018-06-13T14:28:43.954Z,21.66
2018-06-13T14:31:13.975Z,21.27
2018-06-13T14:33:42.667Z,20.88
2018-06-13T14:36:12.390Z,20.82
2018-06-13T14:38:41.229Z,20.61
2018-06-13T14:41:09.985Z,20.41
2018-06-13T14:43:38.759Z,20.38
2018-06-13T14:46:07.532Z,20.24
2018-06-13T14:48:36.226Z,20.11
2018-06-13T14:51:05.592Z,19.83
2018-06-13T14:53:34.388Z,19.84
2018-06-13T14:56:08.133Z,19.73
2018-06-13T14:58:36.906Z,19.55
2018-06-13T15:01:05.645Z,19.61
2018-06-13T15:03:34.328Z,19.56
2018-06-13T15:06:03.187Z,19.52
2018-06-13T15:08:31.962Z,19.50
2018-06-13T15:11:00.696Z,19.44
2018-06-13T15:13:29.493Z,19.53
2018-06-13T15:15:58.235Z,19.61
2018-06-13T15:18:26.916Z,19.64
2018-06-13T15:20:55.794Z,19.72
2018-06-13T15:23:24.524Z,19.81
2018-06-13T15:25:53.175Z,20.05
2018-06-13T15:28:21.834Z,20.19
2018-06-13T15:30:50.617Z,20.24
2018-06-13T15:33:19.280Z,20.24
2018-06-13T15:35:50.074Z,20.27
2018-06-13T15:38:18.741Z,20.21
2018-06-13T15:40:47.385Z,20.30
2018-06-13T15:43:16.114Z,20.21
2018-06-13T15:45:44.873Z,20.23
2018-06-13T15:48:13.585Z,20.31
2018-06-13T15:50:42.311Z,20.32
2018-06-13T15:53:11.082Z,20.30
2018-06-13T15:55:39.770Z,20.20
2018-06-13T15:58:08.656Z,20.33
2018-06-13T16:00:37.319Z,20.44
2018-06-13T16:03:06.820Z,20.44
2018-06-13T16:05:35.859Z,20.48
2018-06-13T16:08:04.586Z,20.46
2018-06-13T16:10:33.241Z,20.55
2018-06-13T16:13:01.995Z,20.49
2018-06-13T16:15:30.668Z,20.51
2018-06-13T16:17:59.355Z,20.58
2018-06-13T16:20:28.115Z,20.61
2018-06-13T16:22:57.354Z,20.58
2018-06-13T16:25:26.083Z,20.41
2018-06-13T16:27:54.773Z,20.36
2018-06-13T16:30:23.552Z,20.33
2018-06-13T16:32:52.258Z,20.41
2018-06-13T16:35:21.059Z,20.56
2018-06-13T16:37:49.713Z,20.44
2018-06-13T16:40:18.337Z,20.37
2018-06-13T16:42:46.999Z,20.30
2018-06-13T16:45:15.717Z,20.25
2018-06-13T16:47:44.435Z,20.30
2018-06-13T16:50:24.066Z,20.28
2018-06-13T16:53:03.479Z,20.37
2018-06-13T16:55:32.097Z,20.37
2018-06-13T16:58:00.726Z,20.34
2018-06-13T17:00:29.446Z,20.33
2018-06-13T17:02:58.133Z,20.38
2018-06-13T17:05:26.850Z,20.37
2018-06-13T17:07:55.618Z,20.31
2018-06-13T17:10:24.355Z,20.31
2018-06-13T17:12:52.974Z,20.28
2018-06-13T17:15:21.894Z,20.22
2018-06-13T17:17:50.683Z,20.22
2018-06-13T17:20:19.527Z,20.26
2018-06-13T17:22:48.215Z,20.27
2018-06-13T17:35:10.416Z,19.92
2018-06-13T17:37:39.082Z,19.88
2018-06-13T17:40:07.861Z,19.75
2018-06-13T17:42:36.683Z,19.71
2018-06-13T17:45:05.899Z,19.68
2018-06-13T17:47:34.696Z,19.55
2018-06-13T17:50:03.431Z,19.43
2018-06-13T17:52:32.105Z,19.42
2018-06-13T17:55:00.859Z,19.33
2018-06-13T17:57:29.634Z,19.27
2018-06-13T17:59:58.371Z,19.24
2018-06-13T18:02:27.083Z,19.26
2018-06-13T18:04:55.820Z,19.27
2018-06-13T18:07:24.510Z,19.20
2018-06-13T18:09:53.212Z,19.13
2018-06-13T18:12:21.958Z,19.14
2018-06-13T18:14:50.646Z,19.08
2018-06-13T18:17:19.391Z,19.04
2018-06-13T18:19:48.095Z,19.01
2018-06-13T18:22:16.789Z,18.98
2018-06-13T18:24:45.502Z,19.02
2018-06-13T18:27:14.253Z,18.98
2018-06-13T18:29:42.933Z,18.97
2018-06-13T18:32:11.675Z,18.93
2018-06-13T18:34:40.396Z,18.91
2018-06-13T18:37:09.095Z,18.94
2018-06-13T18:39:37.777Z,18.86
2018-06-13T18:42:06.607Z,18.89
2018-06-13T18:44:35.302Z,18.88
2018-06-13T18:47:04.023Z,18.76
2018-06-13T18:49:32.707Z,18.79
2018-06-13T18:52:01.478Z,18.64
2018-06-13T18:54:30.319Z,18.58
2018-06-13T18:56:59.024Z,18.45
2018-06-13T18:59:27.673Z,18.44
2018-06-13T19:01:56.396Z,18.47
2018-06-13T19:04:25.063Z,18.54
2018-06-13T19:06:53.696Z,18.55
2018-06-13T19:09:22.377Z,18.52
2018-06-13T19:11:51.044Z,18.50
2018-06-13T19:14:19.707Z,18.45
2018-06-13T19:16:48.934Z,18.50
2018-06-13T19:19:17.598Z,18.36
2018-06-13T19:21:46.258Z,18.37
2018-06-13T19:24:14.955Z,18.32
2018-06-13T19:26:44.211Z,18.31
2018-06-13T19:29:12.847Z,18.36
2018-06-13T19:31:41.565Z,18.27
2018-06-13T19:34:10.271Z,18.33
2018-06-13T19:36:38.893Z,18.26
2018-06-13T19:39:09.014Z,18.35
2018-06-13T19:41:37.748Z,18.29
2018-06-13T19:44:06.455Z,18.22
2018-06-13T19:46:35.065Z,18.20
2018-06-13T19:49:03.745Z,18.21
2018-06-13T19:51:32.398Z,18.12
2018-06-13T19:54:06.282Z,18.14
2018-06-13T19:56:34.991Z,18.09
2018-06-13T19:59:03.657Z,17.96
2018-06-13T20:01:32.393Z,17.95
2018-06-13T20:04:06.171Z,17.87
2018-06-13T20:06:37.620Z,17.96
2018-06-13T20:09:08.164Z,17.94
2018-06-13T20:11:36.841Z,17.91
2018-06-13T20:14:10.609Z,17.89
2018-06-13T20:16:50.509Z,18.04
2018-06-13T20:19:24.740Z,18.03
2018-06-13T20:21:54.618Z,17.89
2018-06-13T20:24:23.303Z,17.88
2018-06-13T20:26:57.161Z,17.89
2018-06-13T20:29:31.036Z,17.87
2018-06-13T20:31:59.692Z,17.80
2018-06-13T20:34:28.481Z,17.77
2018-06-13T20:36:57.118Z,17.70
2018-06-13T20:39:25.819Z,17.75
2018-06-13T20:41:54.459Z,17.68
2018-06-13T20:44:23.099Z,17.67
2018-06-13T20:46:51.758Z,17.58
2018-06-13T20:49:20.386Z,17.56
2018-06-13T20:51:49.107Z,17.53
2018-06-13T20:54:17.854Z,17.52
2018-06-13T20:56:46.470Z,17.52
2018-06-13T20:59:15.134Z,17.53
2018-06-13T21:01:43.857Z,17.55
2018-06-13T21:04:12.526Z,17.50
2018-06-13T21:06:41.167Z,17.53
2018-06-13T21:09:10.547Z,17.57
2018-06-13T21:11:39.628Z,17.46
2018-06-13T21:14:08.325Z,17.43
2018-06-13T21:16:36.958Z,17.46
2018-06-13T21:19:05.628Z,17.37
2018-06-13T21:21:34.254Z,17.33
2018-06-13T21:24:03.024Z,17.36
2018-06-13T21:26:31.662Z,17.32
2018-06-13T21:29:00.272Z,17.27
2018-06-13T21:31:28.926Z,17.25
2018-06-13T21:33:57.584Z,17.24
2018-06-13T21:36:26.241Z,17.24
2018-06-13T21:38:54.958Z,17.27
2018-06-13T21:41:23.695Z,17.19
2018-06-13T21:43:52.346Z,17.16
2018-06-13T21:46:21.044Z,17.18
2018-06-13T21:48:49.740Z,17.18
2018-06-13T21:51:18.338Z,17.12
2018-06-13T21:53:47.056Z,17.11
2018-06-13T21:56:15.774Z,17.09
2018-06-13T21:58:44.439Z,16.97
2018-06-13T22:01:13.071Z,17.01
2018-06-13T22:03:41.735Z,17.03
2018-06-13T22:06:10.409Z,16.95
2018-06-13T22:08:39.059Z,16.84
2018-06-13T22:11:07.684Z,16.85
2018-06-13T22:13:36.363Z,16.93
2018-06-13T22:16:05.078Z,16.93
2018-06-13T22:18:33.720Z,16.91
2018-06-13T22:21:02.342Z,16.96
2018-06-13T22:23:31.007Z,16.91
2018-06-13T22:25:59.639Z,16.92
2018-06-13T22:28:28.278Z,16.91
2018-06-13T22:30:56.968Z,16.96
2018-06-13T22:33:25.601Z,16.86
2018-06-13T22:35:54.230Z,16.91
2018-06-13T22:38:22.938Z,16.77
2018-06-13T22:40:51.583Z,16.73
2018-06-13T22:43:20.200Z,16.74
2018-06-13T22:45:48.810Z,16.77
2018-06-13T22:48:17.465Z,16.72
2018-06-13T22:50:46.189Z,16.71
2018-06-13T22:53:14.878Z,16.64
2018-06-13T22:55:43.522Z,16.61
2018-06-13T22:58:12.223Z,16.61
2018-06-13T23:01:13.081Z,16.65
2018-06-13T23:03:43.796Z,16.51
2018-06-13T23:06:13.250Z,16.61
2018-06-13T23:08:41.861Z,16.57
2018-06-13T23:11:10.557Z,16.47
2018-06-13T23:13:41.277Z,16.46
2018-06-13T23:16:10.287Z,16.44
2018-06-13T23:18:43.508Z,16.39
2018-06-13T23:21:12.288Z,16.38
2018-06-13T23:23:40.884Z,16.36
2018-06-13T23:26:09.532Z,16.35
2018-06-13T23:28:38.135Z,16.39
2018-06-13T23:31:06.825Z,16.41
2018-06-13T23:33:38.896Z,16.38
2018-06-13T23:36:07.590Z,16.34
2018-06-13T23:38:36.242Z,16.30
2018-06-13T23:41:05.056Z,16.29
2018-06-13T23:43:33.650Z,16.21
2018-06-13T23:46:02.300Z,16.32
2018-06-13T23:48:34.366Z,16.29
2018-06-13T23:51:03.231Z,16.30
2018-06-13T23:53:32.058Z,16.19
2018-06-13T23:56:00.771Z,16.25
2018-06-13T23:58:29.439Z,16.25
